»·PEaware :: N751LU KBIL-KDAG

N751LU :: KBIL-KDAG

FLIGHT INFORMATION

Flight Status: Arrived
Operator: Privately registered:
United States
More flights under this callsign
Pilot: Ewen S. (18928)
Aircraft: CANADAIR CL-600 CHALLENGER
(CL60)
More flights by this aircraft type
Origin: KBIL Billings Logan Intl
United States
Destination: KDAG Barstow-Daggett
United States
More flights between these airports :: More routes between these airports
Route: BIL5 BIL V465 MLD PROXI Q842 BEALE OASYS V394 DAG
File this flight plan on PilotEdge
Remarks:
Altitude:
(Current/Filed)
38,000ft
Speed:
(Current/Filed)
460kts
Departed: 30-Nov-23 12:07 PM
Arrived: 30-Nov-23 02:08 PM
Distance/Time
Traveled:
757nm/2:01
Distance/Time
To Go:
Arrived

Flight Plot

Page will automatically refresh every two minutes.

Flight plan parsing failed; only flown route is shown


Map Options




Map Legend


Flown Route
Filed Route
Departure Airport
Arrival Airport
Navaid (VOR, NDB)
Fix

Horizontal Profiles

Position Reports

Time Latitude Longitude Heading Altitude Ground
Speed
30-Nov-23 11:41 45.803582 -108.548678 270 3570ft 0kts
30-Nov-23 11:42 45.803582 -108.548678 270 3570ft 0kts
30-Nov-23 11:43 45.803582 -108.548678 270 3570ft 0kts
30-Nov-23 11:44 45.803582 -108.548678 270 3570ft 0kts
30-Nov-23 11:45 45.803582 -108.548678 270 3570ft 0kts
30-Nov-23 11:46 45.803582 -108.548678 270 3570ft 0kts
30-Nov-23 11:47 45.803582 -108.548678 270 3570ft 0kts
30-Nov-23 11:48 45.803582 -108.548678 270 3570ft 0kts
30-Nov-23 11:49 45.803582 -108.548678 270 3570ft 0kts
30-Nov-23 11:50 45.803582 -108.548678 270 3570ft 0kts
30-Nov-23 11:51 45.803582 -108.548678 270 3570ft 0kts
30-Nov-23 11:52 45.803582 -108.548678 270 3570ft 0kts
30-Nov-23 11:53 45.803582 -108.548678 270 3570ft 0kts
30-Nov-23 11:54 45.803582 -108.548678 270 3570ft 0kts
30-Nov-23 11:55 45.803582 -108.548678 270 3570ft 0kts
30-Nov-23 11:56 45.803582 -108.548678 270 3570ft 0kts
30-Nov-23 11:57 45.803582 -108.548678 270 3570ft 0kts
30-Nov-23 11:58 45.803582 -108.548678 270 3570ft 0kts
30-Nov-23 11:59 45.803908 -108.548487 358 3571ft 0kts
30-Nov-23 12:00 45.803908 -108.548487 358 3571ft 0kts
30-Nov-23 12:01 45.804569 -108.548123 74 3574ft 10kts
30-Nov-23 12:02 45.807590 -108.547298 358 3573ft 1kts
30-Nov-23 12:03 45.807983 -108.547311 357 3571ft 7kts
30-Nov-23 12:04 45.809917 -108.551179 294 3579ft 11kts
30-Nov-23 12:05 45.811497 -108.555281 4 3590ft 12kts
30-Nov-23 12:06 45.811184 -108.549342 111 3563ft 78kts
30-Nov-23 12:07 45.796567 -108.487082 101 5989ft 191kts
30-Nov-23 12:08 45.782098 -108.389433 102 7157ft 291kts
30-Nov-23 12:09 45.722537 -108.348642 215 12057ft 283kts
30-Nov-23 12:10 45.672281 -108.439458 228 14652ft 301kts
30-Nov-23 12:11 45.613396 -108.529071 228 18220ft 304kts
30-Nov-23 12:12 45.555666 -108.620646 229 21510ft 315kts
30-Nov-23 12:13 45.496764 -108.716246 228 24402ft 326kts
30-Nov-23 12:14 45.435507 -108.815655 228 26728ft 340kts
30-Nov-23 12:15 45.371944 -108.918614 228 28719ft 352kts
30-Nov-23 12:16 45.306441 -109.024421 228 30468ft 361kts
30-Nov-23 12:17 45.237054 -109.130990 219 31785ft 373kts
30-Nov-23 12:18 45.147772 -109.210945 213 32985ft 382kts
30-Nov-23 12:19 45.057145 -109.289964 213 34364ft 380kts
30-Nov-23 12:20 44.966704 -109.368589 213 35461ft 382kts
30-Nov-23 12:21 44.875931 -109.447243 214 36431ft 384kts
30-Nov-23 12:23 44.690994 -109.606652 214 37887ft 394kts
30-Nov-23 12:24 44.594902 -109.689061 213 37911ft 414kts
30-Nov-23 12:25 44.494456 -109.774857 213 37993ft 429kts
30-Nov-23 12:26 44.390361 -109.863392 213 37924ft 438kts
30-Nov-23 12:27 44.285590 -109.952104 213 37845ft 437kts
30-Nov-23 12:28 44.181344 -110.040004 213 37862ft 436kts
30-Nov-23 12:29 44.076598 -110.127969 213 37934ft 439kts
30-Nov-23 12:30 43.971705 -110.215692 213 37920ft 439kts
30-Nov-23 12:31 43.866755 -110.303171 214 37905ft 439kts
30-Nov-23 12:32 43.782795 -110.422426 235 37924ft 433kts
30-Nov-23 12:33 43.711713 -110.557883 235 37926ft 434kts
30-Nov-23 12:34 43.640640 -110.693008 234 37943ft 434kts
30-Nov-23 12:35 43.556134 -110.812434 223 37975ft 437kts
30-Nov-23 12:36 43.465422 -110.924980 223 37986ft 439kts
30-Nov-23 12:37 43.374538 -111.037390 223 37956ft 438kts
30-Nov-23 12:38 43.283563 -111.149546 223 37944ft 438kts
30-Nov-23 12:39 43.192778 -111.261037 223 37954ft 439kts
30-Nov-23 12:40 43.101644 -111.372510 224 37976ft 439kts
30-Nov-23 12:41 43.010381 -111.483677 224 38013ft 439kts
30-Nov-23 12:42 42.918578 -111.595051 223 38063ft 441kts
30-Nov-23 12:43 42.826787 -111.705953 223 38037ft 440kts
30-Nov-23 12:44 42.734924 -111.816490 223 38081ft 439kts
30-Nov-23 12:45 42.643237 -111.926381 223 38118ft 440kts
30-Nov-23 12:46 42.551247 -112.036196 223 38114ft 440kts
30-Nov-23 12:47 42.459254 -112.145571 223 38086ft 441kts
30-Nov-23 12:48 42.367114 -112.254674 223 38045ft 439kts
30-Nov-23 12:49 42.274950 -112.363362 223 38043ft 438kts
30-Nov-23 12:50 42.174533 -112.456920 204 38058ft 447kts
30-Nov-23 12:51 42.053397 -112.499931 197 38006ft 448kts
30-Nov-23 12:52 41.930077 -112.527050 184 38100ft 455kts
30-Nov-23 12:53 41.802769 -112.528696 184 38080ft 455kts
30-Nov-23 12:54 41.676971 -112.530206 184 38091ft 455kts
30-Nov-23 12:55 41.549584 -112.531642 184 38094ft 455kts
30-Nov-23 12:56 41.422825 -112.533011 184 38118ft 454kts
30-Nov-23 12:57 41.295106 -112.534360 184 38127ft 455kts
30-Nov-23 12:58 41.167816 -112.537996 185 38103ft 456kts
30-Nov-23 12:59 41.040209 -112.543233 185 38075ft 455kts
30-Nov-23 13:00 40.913359 -112.548307 185 38093ft 454kts
30-Nov-23 13:01 40.786358 -112.553310 185 38107ft 455kts
30-Nov-23 13:02 40.659269 -112.558261 186 38143ft 455kts
30-Nov-23 13:03 40.532268 -112.563172 185 38139ft 456kts
30-Nov-23 13:04 40.405026 -112.568061 186 38124ft 455kts
30-Nov-23 13:05 40.277723 -112.572934 186 38019ft 458kts
30-Nov-23 13:06 40.150662 -112.577572 186 38048ft 455kts
30-Nov-23 13:07 40.023523 -112.582248 185 38058ft 455kts
30-Nov-23 13:08 39.901238 -112.613820 203 38070ft 447kts
30-Nov-23 13:09 39.783778 -112.668439 203 38028ft 445kts
30-Nov-23 13:10 39.667207 -112.722339 203 38075ft 444kts
30-Nov-23 13:11 39.550204 -112.776245 203 38143ft 446kts
30-Nov-23 13:12 39.432853 -112.830384 203 38129ft 445kts
30-Nov-23 13:13 39.316032 -112.883903 203 38125ft 442kts
30-Nov-23 13:14 39.198736 -112.937373 203 38136ft 445kts
30-Nov-23 13:15 39.081209 -112.990695 203 38101ft 445kts
30-Nov-23 13:16 38.964297 -113.043516 203 38111ft 444kts
30-Nov-23 13:17 38.847179 -113.096229 203 38148ft 443kts
30-Nov-23 13:18 38.729913 -113.148822 203 38172ft 445kts
30-Nov-23 13:19 38.612743 -113.201152 203 38147ft 444kts
30-Nov-23 13:20 38.495471 -113.253312 203 37996ft 442kts
30-Nov-23 13:21 38.378958 -113.304959 203 37981ft 443kts
30-Nov-23 13:22 38.262186 -113.356531 203 38031ft 441kts
30-Nov-23 13:23 38.145545 -113.407883 203 38093ft 444kts
30-Nov-23 13:24 38.028694 -113.459135 203 38081ft 442kts
30-Nov-23 13:26 37.914568 -113.515476 215 38105ft 434kts
30-Nov-23 13:27 37.814109 -113.596969 216 38154ft 431kts
30-Nov-23 13:28 37.712353 -113.679334 216 38202ft 430kts
30-Nov-23 13:29 37.610647 -113.761315 216 38163ft 433kts
30-Nov-23 13:30 37.508916 -113.842983 216 38152ft 430kts
30-Nov-23 13:31 37.407896 -113.923808 216 38195ft 431kts
30-Nov-23 13:32 37.306553 -114.004602 216 38226ft 429kts
30-Nov-23 13:33 37.205219 -114.085135 216 38224ft 429kts
30-Nov-23 13:34 37.103976 -114.165319 216 38215ft 427kts
30-Nov-23 13:35 37.002918 -114.245104 216 38239ft 427kts
30-Nov-23 13:36 36.901704 -114.324771 216 38276ft 430kts
30-Nov-23 13:37 36.799899 -114.404636 216 38233ft 429kts
30-Nov-23 13:38 36.698557 -114.482811 213 38216ft 428kts
30-Nov-23 13:39 36.593195 -114.553185 212 38284ft 427kts
30-Nov-23 13:40 36.487830 -114.623390 213 38306ft 429kts
30-Nov-23 13:41 36.382315 -114.693503 212 38275ft 429kts
30-Nov-23 13:42 36.276644 -114.763513 212 38262ft 428kts
30-Nov-23 13:43 36.178430 -114.844715 229 38312ft 419kts
30-Nov-23 13:44 36.114013 -114.964002 240 38335ft 416kts
30-Nov-23 13:45 36.053290 -115.085939 240 37630ft 411kts
30-Nov-23 13:46 35.994219 -115.204391 240 35361ft 398kts
30-Nov-23 13:47 35.936739 -115.319376 240 32950ft 391kts
30-Nov-23 13:48 35.872370 -115.427379 228 30432ft 387kts
30-Nov-23 13:49 35.798766 -115.521273 228 28444ft 371kts
30-Nov-23 13:49 35.739579 -115.596808 229 26853ft 359kts
30-Nov-23 13:51 35.659782 -115.698529 228 24718ft 345kts
30-Nov-23 13:52 35.593995 -115.782235 228 23022ft 333kts
30-Nov-23 13:53 35.530368 -115.863033 229 21344ft 320kts
30-Nov-23 13:53 35.477968 -115.929487 228 19980ft 322kts
30-Nov-23 13:54 35.415934 -116.007971 229 18474ft 313kts
30-Nov-23 13:56 35.345046 -116.097461 229 16552ft 306kts
30-Nov-23 13:57 35.286214 -116.171566 229 14976ft 298kts
30-Nov-23 13:57 35.237933 -116.232273 229 13673ft 294kts
30-Nov-23 13:58 35.180933 -116.303813 228 12138ft 289kts
30-Nov-23 13:59 35.125306 -116.373483 228 10641ft 282kts
30-Nov-23 14:00 35.070652 -116.441812 228 9153ft 277kts
30-Nov-23 14:02 35.008560 -116.519252 228 7463ft 267kts
30-Nov-23 14:02 34.965752 -116.572541 228 6280ft 254kts
30-Nov-23 14:03 34.910424 -116.623290 219 4937ft 225kts
30-Nov-23 14:04 34.861481 -116.665730 219 3765ft 188kts
30-Nov-23 14:05 34.851211 -116.720436 272 3046ft 154kts
30-Nov-23 14:07 34.851315 -116.773169 274 2003ft 126kts
30-Nov-23 14:07 34.851461 -116.795258 270 1936ft 30kts
30-Nov-23 14:08 34.852496 -116.795381 92 1934ft 22kts
30-Nov-23 14:09 34.854669 -116.790931 359 1929ft 10kts

Navigation Log

Ident Type
Flight plan parsing failed, navigation log unavailable